Time;durP1;ratioP1;P1;durP2;ratioP2;P2;SDS_P1;SDS_P2;PMS_P1;PMS_P2;Temp;Humidity;BMP_temperature;BMP_pressure;BME280_temperature;BME280_humidity;BME280_pressure;Samples;Min_cycle;Max_cycle;Signal;HPM_P1;HPM_P2
2023/02/02 00:01:28;;;;;;;5.20;1.40;;;6.30;99.90;;;;;;4974020;28;20458;-71
2023/02/02 00:03:54;;;;;;;82.60;19.73;;;6.30;99.90;;;;;;4974022;28;20825;-71
2023/02/02 00:06:21;;;;;;;47.97;3.50;;;6.30;99.90;;;;;;4974364;28;20865;-70
2023/02/02 00:08:47;;;;;;;27.70;1.83;;;6.30;99.90;;;;;;4974089;28;20428;-71
2023/02/02 00:11:14;;;;;;;12.47;1.77;;;6.30;99.90;;;;;;4974258;28;20826;-71
2023/02/02 00:13:40;;;;;;;10.10;1.90;;;6.30;99.90;;;;;;4973942;28;20554;-71
2023/02/02 00:16:33;;;;;;;5.60;1.77;;;6.30;99.90;;;;;;4974039;28;20900;-71
2023/02/02 00:19:10;;;;;;;6.83;1.87;;;6.30;99.90;;;;;;4974017;28;20194;-71
2023/02/02 00:21:37;;;;;;;28.20;9.93;;;6.30;99.90;;;;;;4973974;28;20441;-71
2023/02/02 00:24:03;;;;;;;12.53;2.60;;;6.30;99.90;;;;;;4973695;28;20569;-69
2023/02/02 00:26:29;;;;;;;6.07;1.10;;;6.30;99.90;;;;;;4958948;28;20493;-71
2023/02/02 00:28:55;;;;;;;8.50;1.57;;;6.30;99.90;;;;;;4973151;28;20441;-71
2023/02/02 00:31:21;;;;;;;9.63;1.70;;;6.30;99.90;;;;;;4973653;28;20282;-71
2023/02/02 00:33:48;;;;;;;62.60;22.57;;;6.30;99.90;;;;;;4973375;28;20191;-71
2023/02/02 00:36:14;;;;;;;10.97;1.93;;;6.30;99.90;;;;;;4942717;28;21079;-73
2023/02/02 00:38:40;;;;;;;11.17;2.13;;;6.30;99.90;;;;;;4954887;28;20446;-70
2023/02/02 00:41:06;;;;;;;7.60;1.63;;;6.30;99.90;;;;;;4947079;28;20471;-71
2023/02/02 00:43:31;;;;;;;6.60;1.87;;;6.30;99.90;;;;;;4958137;28;20537;-71
2023/02/02 00:45:57;;;;;;;10.33;2.00;;;6.30;99.90;;;;;;4973339;28;20480;-71
2023/02/02 00:48:24;;;;;;;17.77;2.47;;;6.30;99.90;;;;;;4966981;28;20226;-71
2023/02/02 00:50:50;;;;;;;11.00;1.97;;;6.30;99.90;;;;;;4961082;28;20612;-71
2023/02/02 00:53:16;;;;;;;15.07;2.07;;;6.30;99.90;;;;;;4954284;28;20816;-71
2023/02/02 00:55:41;;;;;;;11.97;2.00;;;6.40;99.90;;;;;;4954248;28;20477;-72
2023/02/02 00:58:07;;;;;;;3.87;1.97;;;6.40;99.90;;;;;;4972607;28;20724;-72
2023/02/02 01:00:32;;;;;;;7.97;2.10;;;6.40;99.90;;;;;;4973195;28;20207;-72
2023/02/02 01:03:03;;;;;;;3.70;1.83;;;6.30;99.90;;;;;;4972728;28;20730;-70
2023/02/02 01:05:29;;;;;;;10.97;2.10;;;6.30;99.90;;;;;;4973279;28;20206;-72
2023/02/02 01:07:55;;;;;;;9.23;1.83;;;6.30;99.90;;;;;;4973430;28;20443;-72
2023/02/02 01:10:20;;;;;;;5.40;1.90;;;6.30;99.90;;;;;;4967179;28;20465;-72
2023/02/02 01:12:46;;;;;;;8.37;2.03;;;6.40;99.90;;;;;;4971081;28;20207;-72
2023/02/02 01:15:12;;;;;;;10.80;1.53;;;6.40;99.90;;;;;;4971809;28;20195;-73
2023/02/02 01:17:38;;;;;;;8.00;1.30;;;6.40;99.90;;;;;;4973366;28;20278;-72
2023/02/02 01:20:05;;;;;;;8.60;1.10;;;6.40;99.90;;;;;;4961541;28;20549;-73
2023/02/02 01:22:32;;;;;;;8.40;1.60;;;6.40;99.90;;;;;;4961845;28;20912;-73
2023/02/02 01:24:58;;;;;;;10.40;1.93;;;6.40;99.90;;;;;;4972245;28;20534;-72
2023/02/02 01:27:24;;;;;;;4.67;1.43;;;6.40;99.90;;;;;;4966555;28;20438;-69
2023/02/02 01:29:49;;;;;;;26.27;6.50;;;6.40;99.90;;;;;;4953384;28;20199;-70
2023/02/02 01:32:15;;;;;;;5.60;1.27;;;6.40;99.90;;;;;;4966549;28;20463;-70
2023/02/02 01:34:42;;;;;;;3.90;1.50;;;6.40;99.90;;;;;;4972787;28;20222;-70
2023/02/02 01:37:08;;;;;;;12.63;1.53;;;6.30;99.90;;;;;;4960800;28;20201;-71
2023/02/02 01:39:34;;;;;;;3.63;1.90;;;6.30;99.90;;;;;;4969002;28;20443;-70
2023/02/02 01:41:59;;;;;;;7.50;1.57;;;6.30;99.90;;;;;;4955048;28;21116;-70
2023/02/02 01:45:03;;;;;;;6.63;1.37;;;6.30;99.90;;;;;;4972409;28;20240;-70
2023/02/02 01:47:33;;;;;;;2.33;1.83;;;6.30;99.90;;;;;;4972588;28;20686;-71
2023/02/02 01:49:59;;;;;;;21.47;2.90;;;6.30;99.90;;;;;;4972727;28;20427;-70
2023/02/02 01:52:27;;;;;;;13.60;2.30;;;6.20;99.90;;;;;;4972634;28;20870;-70
2023/02/02 01:54:58;;;;;;;7.90;1.80;;;6.20;99.90;;;;;;4972163;28;20446;-70
2023/02/02 01:57:38;;;;;;;7.03;1.90;;;6.20;99.90;;;;;;4971389;28;20441;-70
2023/02/02 03:30:32;;;;;;;8.20;2.40;;;6.30;99.90;;;;;;6044971;22;20356;-71
2023/02/02 03:32:57;;;;;;;3.30;1.27;;;6.30;99.90;;;;;;4995988;28;20532;-71
2023/02/02 03:35:24;;;;;;;69.13;64.33;;;6.30;99.90;;;;;;5001153;28;20527;-72
2023/02/02 03:37:50;;;;;;;12.20;2.10;;;6.30;99.90;;;;;;5003112;28;20180;-72
2023/02/02 03:40:15;;;;;;;3.23;1.67;;;6.30;99.90;;;;;;5005925;28;20505;-71
2023/02/02 03:42:41;;;;;;;9.43;1.33;;;6.30;99.90;;;;;;4986116;28;20273;-70
2023/02/02 03:45:07;;;;;;;8.50;1.83;;;6.30;99.90;;;;;;4982616;28;20678;-72
2023/02/02 03:47:32;;;;;;;7.40;1.77;;;6.30;99.90;;;;;;4981416;28;20188;-72
2023/02/02 03:49:58;;;;;;;3.30;1.63;;;6.30;99.90;;;;;;4984500;28;20464;-72
2023/02/02 03:52:24;;;;;;;5.63;1.80;;;6.30;99.90;;;;;;4985705;28;20243;-72
2023/02/02 03:54:50;;;;;;;112.83;103.43;;;6.40;99.90;;;;;;4984974;28;20249;-72
2023/02/02 03:57:16;;;;;;;3.13;1.50;;;6.40;99.90;;;;;;4982313;28;20440;-72
2023/02/02 03:59:41;;;;;;;5.80;2.33;;;6.40;99.90;;;;;;4982544;28;20525;-71
2023/02/02 04:02:07;;;;;;;4.43;1.80;;;6.30;99.90;;;;;;4985484;28;20214;-71
2023/02/02 04:04:32;;;;;;;6.43;1.80;;;6.30;99.90;;;;;;4985558;28;20215;-72
2023/02/02 04:06:58;;;;;;;5.30;2.40;;;6.30;99.90;;;;;;4984295;28;20196;-72
2023/02/02 04:09:24;;;;;;;6.17;2.60;;;6.30;99.90;;;;;;4982623;28;20265;-69
2023/02/02 04:11:50;;;;;;;6.70;2.23;;;6.30;99.90;;;;;;4983027;28;20673;-69
2023/02/02 04:14:15;;;;;;;4.60;1.50;;;6.30;99.90;;;;;;4985546;28;20433;-69
2023/02/02 04:16:41;;;;;;;10.63;1.47;;;6.30;99.90;;;;;;4985693;28;20194;-69
2023/02/02 04:19:06;;;;;;;4.70;2.07;;;6.30;99.90;;;;;;4982788;28;20285;-69
2023/02/02 04:21:32;;;;;;;6.00;2.10;;;6.30;99.90;;;;;;4982250;28;20261;-69
2023/02/02 04:23:58;;;;;;;6.30;1.87;;;6.30;99.90;;;;;;4982591;28;20481;-69
2023/02/02 04:26:25;;;;;;;2.97;1.60;;;6.30;99.90;;;;;;4985561;28;20186;-70
2023/02/02 04:28:51;;;;;;;7.90;1.63;;;6.30;99.90;;;;;;4984784;28;20177;-70
2023/02/02 04:31:16;;;;;;;9.20;2.00;;;6.30;99.90;;;;;;4982078;28;20457;-71
2023/02/02 04:33:42;;;;;;;7.50;1.73;;;6.30;99.90;;;;;;4982101;28;20435;-71
2023/02/02 04:36:08;;;;;;;8.87;1.90;;;6.30;99.90;;;;;;4984916;28;20245;-71
2023/02/02 04:38:33;;;;;;;3.00;1.23;;;6.30;99.90;;;;;;4985386;28;20630;-70
2023/02/02 04:41:06;;;;;;;3.33;1.40;;;6.30;99.90;;;;;;4983506;28;20412;-70
2023/02/02 04:43:33;;;;;;;10.70;2.50;;;6.40;99.90;;;;;;4982007;28;20181;-70
2023/02/02 04:45:58;;;;;;;2.10;1.80;;;6.40;99.90;;;;;;4981739;28;20467;-70
2023/02/02 04:48:24;;;;;;;11.87;1.83;;;6.40;99.90;;;;;;4984953;28;20430;-70
2023/02/02 04:50:49;;;;;;;6.77;2.23;;;6.40;99.90;;;;;;4984914;28;20583;-70
2023/02/02 04:53:15;;;;;;;4.77;1.80;;;6.40;99.90;;;;;;4981536;28;20199;-71
2023/02/02 04:55:40;;;;;;;7.37;1.63;;;6.40;99.90;;;;;;4981329;28;20193;-70
2023/02/02 04:58:06;;;;;;;4.87;1.50;;;6.40;99.90;;;;;;4983659;28;20191;-70
2023/02/02 05:00:32;;;;;;;6.13;1.67;;;6.40;99.90;;;;;;4984453;28;20189;-70
2023/02/02 05:02:57;;;;;;;3.33;1.60;;;6.50;99.90;;;;;;4983021;28;20193;-71
2023/02/02 05:05:23;;;;;;;7.90;1.97;;;6.40;99.90;;;;;;4981069;28;20304;-70
2023/02/02 05:07:48;;;;;;;10.47;2.63;;;6.40;99.90;;;;;;4981334;28;20596;-71
2023/02/02 05:10:14;;;;;;;43.40;40.23;;;6.40;99.90;;;;;;4984533;28;20652;-70
2023/02/02 05:12:39;;;;;;;7.73;1.77;;;6.40;99.90;;;;;;4983726;28;20205;-70
2023/02/02 05:15:05;;;;;;;10.33;2.70;;;6.50;99.90;;;;;;4982251;28;20201;-70
2023/02/02 05:17:31;;;;;;;6.03;1.70;;;6.40;99.90;;;;;;4981560;28;20193;-70
2023/02/02 05:19:58;;;;;;;5.50;2.20;;;6.50;99.90;;;;;;4982095;28;20942;-70
2023/02/02 05:22:23;;;;;;;5.93;1.90;;;6.50;99.90;;;;;;4984398;28;20464;-71
2023/02/02 05:24:48;;;;;;;6.87;1.80;;;6.50;99.90;;;;;;4974734;28;20459;-70
2023/02/02 05:27:14;;;;;;;3.90;1.80;;;6.50;99.90;;;;;;4981139;28;20556;-71
2023/02/02 05:29:40;;;;;;;6.53;2.80;;;6.50;99.90;;;;;;4981140;28;20194;-71
2023/02/02 05:32:05;;;;;;;32.93;22.20;;;6.50;99.90;;;;;;4982526;28;20230;-70
2023/02/02 05:34:31;;;;;;;7.07;2.17;;;6.50;99.90;;;;;;4984006;28;20194;-72
2023/02/02 05:36:56;;;;;;;7.00;2.33;;;6.40;99.90;;;;;;4983235;28;20687;-72
2023/02/02 05:39:22;;;;;;;7.03;2.30;;;6.40;99.90;;;;;;4980944;28;20564;-72
2023/02/02 05:41:47;;;;;;;7.23;2.60;;;6.50;99.90;;;;;;4980733;28;20218;-72
2023/02/02 05:44:13;;;;;;;7.50;2.60;;;6.50;99.90;;;;;;4983316;28;20279;-72
2023/02/02 05:46:40;;;;;;;11.20;2.70;;;6.50;99.90;;;;;;4984232;28;20223;-72
2023/02/02 05:49:06;;;;;;;10.33;2.80;;;6.50;99.90;;;;;;4981933;28;20941;-72
2023/02/02 05:51:36;;;;;;;9.83;3.77;;;6.50;99.90;;;;;;4980624;28;20482;-72
2023/02/02 05:54:01;;;;;;;8.93;2.63;;;6.50;99.90;;;;;;4981663;28;20186;-72
2023/02/02 05:56:27;;;;;;;7.10;2.33;;;6.50;99.90;;;;;;4983785;28;20441;-72
2023/02/02 05:58:52;;;;;;;24.63;22.63;;;6.50;99.90;;;;;;4983554;28;20248;-72
2023/02/02 06:01:20;;;;;;;13.23;6.10;;;6.50;99.90;;;;;;4980483;28;20208;-72
2023/02/02 06:03:45;;;;;;;8.53;2.00;;;6.50;99.90;;;;;;4980230;28;20194;-73
2023/02/02 06:06:11;;;;;;;5.07;2.67;;;6.50;99.90;;;;;;4982689;28;20430;-72
2023/02/02 06:08:37;;;;;;;9.77;3.07;;;6.50;99.90;;;;;;4983908;28;20265;-72
2023/02/02 06:11:13;;;;;;;7.60;2.73;;;6.50;99.90;;;;;;4982279;28;20212;-71
2023/02/02 06:13:38;;;;;;;8.03;2.10;;;6.50;99.90;;;;;;4980579;28;20220;-72
2023/02/02 06:16:04;;;;;;;3.43;1.67;;;6.50;99.90;;;;;;4981560;28;20464;-72
2023/02/02 06:18:30;;;;;;;5.47;2.23;;;6.40;99.90;;;;;;4983727;28;20186;-72
2023/02/02 06:20:57;;;;;;;5.90;2.07;;;6.40;99.90;;;;;;4973417;28;20460;-71
2023/02/02 06:23:23;;;;;;;22.20;3.83;;;6.40;99.90;;;;;;4980327;28;20331;-72
2023/02/02 06:25:48;;;;;;;10.20;2.73;;;6.40;99.90;;;;;;4978791;28;20551;-72
2023/02/02 06:28:14;;;;;;;7.63;2.43;;;6.50;99.90;;;;;;4987342;28;20198;-72
2023/02/02 06:30:39;;;;;;;9.83;2.30;;;6.50;99.90;;;;;;4979617;28;20688;-72
2023/02/02 06:33:06;;;;;;;7.10;2.47;;;6.50;99.90;;;;;;4981500;28;20199;-72
2023/02/02 06:35:31;;;;;;;15.47;3.30;;;6.50;99.90;;;;;;4983419;28;20197;-73
2023/02/02 06:37:58;;;;;;;10.30;2.63;;;6.50;99.90;;;;;;4985957;28;20449;-72
2023/02/02 06:40:23;;;;;;;4.63;1.87;;;6.50;99.90;;;;;;4986107;28;20189;-71
2023/02/02 06:42:55;;;;;;;10.60;3.53;;;6.50;99.90;;;;;;4983699;28;20444;-72
2023/02/02 06:45:20;;;;;;;7.60;2.63;;;6.50;99.90;;;;;;4988190;28;20207;-73
2023/02/02 06:47:46;;;;;;;7.67;4.33;;;6.50;99.90;;;;;;4982349;28;20515;-71
2023/02/02 06:50:11;;;;;;;5.77;2.50;;;6.50;99.90;;;;;;4986022;28;20196;-71
2023/02/02 06:52:38;;;;;;;8.40;2.40;;;6.60;99.90;;;;;;4988093;28;20206;-72
2023/02/02 06:55:03;;;;;;;7.17;2.37;;;6.50;99.90;;;;;;4986225;28;20554;-73
2023/02/02 06:57:29;;;;;;;7.97;1.93;;;6.50;99.90;;;;;;4984749;28;20209;-71
2023/02/02 06:59:54;;;;;;;5.13;2.37;;;6.50;99.90;;;;;;4992152;28;20684;-72
2023/02/02 07:02:22;;;;;;;4.60;1.97;;;6.50;99.90;;;;;;4984251;28;20220;-70
2023/02/02 07:04:48;;;;;;;8.90;2.10;;;6.50;99.90;;;;;;4983725;28;20261;-72
2023/02/02 07:07:13;;;;;;;4.80;2.10;;;6.50;99.90;;;;;;4985915;28;20444;-71
2023/02/02 07:09:39;;;;;;;5.40;1.90;;;6.60;99.90;;;;;;4986673;28;20234;-71
2023/02/02 07:12:05;;;;;;;8.13;2.20;;;6.60;99.90;;;;;;4985311;28;20253;-72
2023/02/02 07:14:30;;;;;;;4.73;1.33;;;6.60;99.90;;;;;;4983276;28;20196;-73
2023/02/02 07:16:56;;;;;;;5.63;1.80;;;6.60;99.90;;;;;;4983623;28;20945;-73
2023/02/02 07:19:21;;;;;;;3.40;1.33;;;6.60;99.90;;;;;;4986514;28;20196;-72
2023/02/02 07:21:47;;;;;;;5.53;1.27;;;6.60;99.90;;;;;;4985984;28;20211;-72
2023/02/02 07:24:12;;;;;;;2.97;1.47;;;6.60;99.90;;;;;;4983656;28;20217;-72
2023/02/02 07:26:38;;;;;;;2.40;1.20;;;6.60;99.90;;;;;;4982900;28;20191;-72
2023/02/02 07:29:04;;;;;;;7.33;1.67;;;6.60;99.90;;;;;;4983789;28;20195;-73
2023/02/02 07:31:30;;;;;;;5.33;1.30;;;6.60;99.90;;;;;;4985699;28;20271;-71
2023/02/02 07:33:55;;;;;;;9.33;1.70;;;6.60;99.90;;;;;;4985897;28;20948;-71
2023/02/02 07:36:23;;;;;;;5.70;1.73;;;6.60;99.90;;;;;;4982710;28;20193;-72
2023/02/02 07:38:52;;;;;;;2.90;1.70;;;6.60;99.90;;;;;;4982722;28;20667;-71
2023/02/02 07:41:18;;;;;;;4.73;1.97;;;6.60;99.90;;;;;;4985284;28;20873;-73
2023/02/02 07:43:46;;;;;;;57.43;45.10;;;6.60;99.90;;;;;;4985278;28;20441;-71
2023/02/02 07:46:13;;;;;;;7.23;2.27;;;6.60;99.90;;;;;;4990823;28;20199;-70
2023/02/02 07:48:39;;;;;;;11.00;2.87;;;6.70;99.90;;;;;;4987444;28;20461;-73
2023/02/02 07:51:12;;;;;;;5.07;2.30;;;6.70;99.90;;;;;;4984375;28;20481;-72
2023/02/02 07:53:41;;;;;;;5.47;2.90;;;6.70;99.90;;;;;;4982747;28;20434;-70
2023/02/02 07:56:07;;;;;;;7.07;2.13;;;6.70;99.90;;;;;;4983230;28;20414;-72
2023/02/02 07:58:33;;;;;;;9.33;3.23;;;6.80;99.90;;;;;;4986066;28;20438;-72
2023/02/02 08:01:03;;;;;;;4.50;1.90;;;6.80;99.90;;;;;;4985516;28;20447;-74
2023/02/02 08:03:29;;;;;;;3.20;1.77;;;6.80;99.90;;;;;;4978410;28;20195;-71
2023/02/02 08:05:55;;;;;;;6.80;2.00;;;6.80;99.90;;;;;;4985546;28;20468;-71
2023/02/02 08:08:20;;;;;;;7.00;1.80;;;6.80;99.90;;;;;;4983047;28;20190;-72
2023/02/02 08:10:50;;;;;;;11.27;2.23;;;6.90;99.90;;;;;;4971204;28;20471;-73
2023/02/02 08:13:16;;;;;;;8.63;2.00;;;6.90;99.90;;;;;;4983648;28;20190;-73
2023/02/02 08:15:42;;;;;;;7.20;2.30;;;6.90;99.90;;;;;;4982561;28;20426;-72
2023/02/02 08:18:07;;;;;;;9.30;3.17;;;6.90;99.90;;;;;;4983324;28;20201;-71
2023/02/02 08:20:33;;;;;;;6.30;1.97;;;6.90;99.90;;;;;;4985702;28;20778;-71
2023/02/02 08:22:59;;;;;;;1.90;1.63;;;7.00;99.90;;;;;;4985335;28;20209;-72
2023/02/02 08:25:24;;;;;;;9.30;2.20;;;7.10;99.90;;;;;;4981985;28;20211;-74
2023/02/02 08:27:54;;;;;;;5.43;1.63;;;7.10;99.90;;;;;;4982137;28;20201;-72
2023/02/02 08:30:19;;;;;;;42.93;22.23;;;7.20;99.90;;;;;;4984325;28;20189;-72
2023/02/02 08:32:45;;;;;;;12.50;2.60;;;7.20;99.90;;;;;;4985389;28;20535;-72
2023/02/02 08:35:10;;;;;;;23.33;7.03;;;7.30;99.90;;;;;;4983493;28;20221;-72
2023/02/02 08:37:36;;;;;;;21.33;2.53;;;7.30;99.90;;;;;;4982037;28;20558;-72
2023/02/02 08:40:02;;;;;;;6.30;2.10;;;7.30;99.90;;;;;;4989486;28;20195;-72
2023/02/02 08:42:28;;;;;;;6.07;2.00;;;7.30;99.90;;;;;;4981833;28;20202;-72
2023/02/02 08:44:53;;;;;;;8.10;1.87;;;7.30;99.90;;;;;;4981253;28;20523;-71
2023/02/02 08:47:19;;;;;;;35.43;14.60;;;7.40;99.90;;;;;;4983876;28;20199;-71
2023/02/02 08:49:44;;;;;;;21.47;2.50;;;7.30;99.90;;;;;;4984805;28;20305;-71
2023/02/02 08:52:10;;;;;;;54.33;6.07;;;7.30;99.90;;;;;;4983568;28;20618;-73
2023/02/02 08:54:35;;;;;;;14.10;3.37;;;7.30;99.90;;;;;;4981340;28;20188;-71
2023/02/02 08:57:01;;;;;;;47.67;40.97;;;7.30;99.90;;;;;;4981425;28;20270;-72
2023/02/02 08:59:26;;;;;;;11.37;2.40;;;7.20;99.90;;;;;;4984600;28;20194;-72
2023/02/02 09:01:52;;;;;;;10.00;2.70;;;7.20;99.90;;;;;;4984752;28;20291;-72
2023/02/02 09:04:17;;;;;;;45.57;18.80;;;7.20;99.90;;;;;;4982224;28;20232;-72
2023/02/02 09:06:44;;;;;;;7.40;3.30;;;7.20;99.90;;;;;;4981374;28;20184;-74
2023/02/02 09:09:13;;;;;;;7.07;4.13;;;7.20;99.90;;;;;;4981909;28;20220;-73
2023/02/02 09:11:39;;;;;;;10.33;2.83;;;7.20;99.90;;;;;;4984002;28;20552;-73
2023/02/02 09:14:05;;;;;;;8.27;2.27;;;7.20;99.90;;;;;;4983986;28;20603;-72
2023/02/02 09:16:32;;;;;;;12.10;2.37;;;7.10;99.90;;;;;;4984934;28;20448;-71
2023/02/02 09:18:58;;;;;;;4.10;1.83;;;7.10;99.90;;;;;;4984694;28;20425;-72
2023/02/02 09:21:24;;;;;;;11.70;3.10;;;7.20;99.90;;;;;;4981909;28;20467;-72
2023/02/02 09:23:52;;;;;;;3.10;2.10;;;7.20;99.90;;;;;;4981141;28;20203;-73
2023/02/02 09:26:25;;;;;;;5.97;2.80;;;7.20;99.90;;;;;;4983020;28;20505;-73
2023/02/02 09:29:02;;;;;;;9.83;2.33;;;7.20;99.90;;;;;;4984542;28;20427;-73
2023/02/02 09:31:29;;;;;;;16.43;11.33;;;7.20;99.90;;;;;;4984362;28;20881;-73
2023/02/02 09:34:00;;;;;;;3.77;2.77;;;7.20;99.90;;;;;;4984231;28;20435;-73
2023/02/02 09:36:26;;;;;;;11.27;2.93;;;7.30;99.90;;;;;;4972127;28;20436;-73
2023/02/02 09:38:52;;;;;;;7.40;2.57;;;7.30;99.90;;;;;;4981004;28;20425;-73
2023/02/02 09:41:35;;;;;;;5.70;2.53;;;7.30;99.90;;;;;;4982767;28;20215;-74
2023/02/02 09:44:13;;;;;;;7.50;3.10;;;7.20;99.90;;;;;;4984016;28;20257;-72
2023/02/02 09:46:57;;;;;;;10.70;3.57;;;7.30;99.90;;;;;;4981014;28;20429;-73
2023/02/02 09:49:41;;;;;;;15.27;2.67;;;7.20;99.90;;;;;;4983177;28;20426;-73
2023/02/02 09:52:15;;;;;;;10.47;2.80;;;7.20;99.90;;;;;;4984044;28;20464;-72
2023/02/02 09:54:55;;;;;;;12.20;3.00;;;7.20;99.90;;;;;;4992584;28;20511;-73
2023/02/02 09:57:26;;;;;;;4.27;2.80;;;7.20;99.90;;;;;;4990259;28;20977;-73
2023/02/02 09:59:53;;;;;;;8.83;3.17;;;7.20;99.90;;;;;;4980605;28;20930;-73
2023/02/02 10:02:24;;;;;;;8.57;2.80;;;7.20;99.90;;;;;;4982533;28;20444;-72
2023/02/02 10:04:54;;;;;;;6.53;2.90;;;7.10;99.90;;;;;;4983973;28;20498;-72
2023/02/02 10:07:29;;;;;;;13.10;2.80;;;7.20;99.90;;;;;;4982491;28;20432;-73
2023/02/02 10:10:10;;;;;;;5.57;2.80;;;7.20;99.90;;;;;;4980725;28;20786;-72
2023/02/02 10:12:42;;;;;;;17.67;3.20;;;7.20;99.90;;;;;;4976584;28;20442;-73
2023/02/02 10:15:38;;;;;;;9.57;3.47;;;7.20;99.90;;;;;;4991341;28;20425;-73
2023/02/02 10:18:09;;;;;;;12.90;3.17;;;7.20;99.90;;;;;;4970898;28;20435;-73
2023/02/02 10:20:44;;;;;;;21.33;10.27;;;7.20;99.90;;;;;;4976321;28;20458;-73
2023/02/02 10:23:57;;;;;;;12.83;4.03;;;7.20;99.90;;;;;;4985785;28;20471;-73
2023/02/02 10:26:46;;;;;;;11.83;2.40;;;7.20;99.90;;;;;;4932526;28;20457;-73
2023/02/02 10:29:21;;;;;;;1999.90;999.90;;;7.20;99.90;;;;;;4984804;28;20453;-73
2023/02/02 10:32:21;;;;;;;1999.90;999.90;;;7.20;99.90;;;;;;4982527;28;20464;-73
2023/02/02 10:34:56;;;;;;;1999.90;999.90;;;7.20;99.90;;;;;;4981244;28;20424;-73
2023/02/02 10:37:34;;;;;;;1999.90;999.90;;;7.20;99.90;;;;;;4985822;28;20432;-73
2023/02/02 10:40:28;;;;;;;1999.90;999.90;;;7.10;99.90;;;;;;4984139;28;20807;-73
2023/02/02 10:45:58;;;;;;;1999.90;999.90;;;7.10;99.90;;;;;;4982220;28;20526;-74
2023/02/02 10:48:31;;;;;;;1999.90;999.90;;;7.20;99.90;;;;;;4985280;28;20527;-74
2023/02/02 10:51:01;;;;;;;1999.90;999.90;;;7.20;99.90;;;;;;4983798;28;20899;-74
2023/02/02 10:53:31;;;;;;;1999.90;999.90;;;7.30;99.90;;;;;;4974379;28;20444;-74
2023/02/02 10:56:05;;;;;;;1999.90;999.90;;;7.30;99.90;;;;;;4983708;28;20529;-74
2023/02/02 10:58:43;;;;;;;1999.90;999.90;;;7.30;99.90;;;;;;4986724;28;20432;-74
2023/02/02 11:01:10;;;;;;;1999.90;999.90;;;7.30;99.90;;;;;;4987066;28;20462;-73
2023/02/02 11:03:37;;;;;;;1999.90;999.90;;;7.40;99.90;;;;;;4983953;28;20431;-73
2023/02/02 11:08:55;;;;;;;1999.90;999.90;;;7.50;99.90;;;;;;4984238;28;20435;-73
2023/02/02 11:11:37;;;;;;;1999.90;999.90;;;7.50;99.90;;;;;;4973869;28;20465;-73
2023/02/02 11:14:08;;;;;;;1999.90;999.90;;;7.60;99.90;;;;;;4983437;28;20486;-74
2023/02/02 11:16:39;;;;;;;1999.90;999.90;;;7.60;99.90;;;;;;4986737;28;20440;-73
2023/02/02 11:19:18;;;;;;;1999.90;999.90;;;7.60;99.90;;;;;;4986581;28;20813;-73
2023/02/02 11:21:53;;;;;;;1999.90;999.90;;;7.70;99.90;;;;;;4979763;28;20465;-73
2023/02/02 11:24:26;;;;;;;1999.90;999.90;;;7.70;99.90;;;;;;4993195;28;20470;-72
2023/02/02 11:27:13;;;;;;;1999.90;999.90;;;7.80;99.90;;;;;;4982059;28;20432;-73
2023/02/02 11:29:39;;;;;;;1999.90;999.90;;;7.90;99.90;;;;;;4986859;28;20434;-73
2023/02/02 11:32:26;;;;;;;1999.90;999.90;;;7.90;99.90;;;;;;4986462;28;20631;-73
2023/02/02 11:35:07;;;;;;;1999.90;999.90;;;8.00;99.90;;;;;;4980209;28;20535;-73
2023/02/02 11:37:35;;;;;;;1999.90;999.90;;;8.00;99.90;;;;;;4987427;28;20444;-72
2023/02/02 11:40:22;;;;;;;1999.90;999.90;;;7.90;99.90;;;;;;4986335;28;20856;-71
2023/02/02 11:42:50;;;;;;;1999.90;999.90;;;7.90;99.90;;;;;;4978797;28;20437;-72
2023/02/02 11:45:38;;;;;;;1999.90;999.90;;;7.90;99.90;;;;;;4985402;28;21056;-73
2023/02/02 11:48:11;;;;;;;1999.90;999.90;;;7.90;99.90;;;;;;4982959;28;20513;-72
2023/02/02 11:50:37;;;;;;;1999.90;999.90;;;7.90;99.90;;;;;;4986068;28;20432;-72
2023/02/02 11:53:03;;;;;;;1999.90;999.90;;;7.90;99.90;;;;;;4986135;28;20433;-72
2023/02/02 11:55:30;;;;;;;1999.90;999.90;;;7.90;99.90;;;;;;4978156;28;20276;-72
2023/02/02 11:58:16;;;;;;;1999.90;999.90;;;7.80;99.90;;;;;;4986279;28;20671;-74
2023/02/02 12:00:49;;;;;;;1999.90;999.90;;;7.80;99.90;;;;;;4978568;28;20459;-73
2023/02/02 12:03:38;;;;;;;1999.90;999.90;;;7.70;99.90;;;;;;4985554;28;20440;-74
2023/02/02 12:06:18;;;;;;;1999.90;999.90;;;7.60;99.90;;;;;;4982198;28;20476;-73
2023/02/02 12:08:44;;;;;;;1999.90;999.90;;;7.60;99.90;;;;;;4978697;28;20428;-73
2023/02/02 12:11:31;;;;;;;1999.90;999.90;;;7.60;99.90;;;;;;4985490;28;20468;-74
2023/02/02 12:14:26;;;;;;;1999.90;999.90;;;7.60;99.90;;;;;;4993200;28;20439;-73
2023/02/02 12:17:06;;;;;;;1999.90;999.90;;;7.50;99.90;;;;;;4979224;28;20434;-72
2023/02/02 12:19:53;;;;;;;1999.90;999.90;;;7.50;99.90;;;;;;4982870;28;20444;-71
2023/02/02 12:22:55;;;;;;;1999.90;999.90;;;7.40;99.90;;;;;;4982499;28;20508;-73
2023/02/02 12:25:31;;;;;;;1999.90;999.90;;;7.30;99.90;;;;;;4983821;28;20631;-73
2023/02/02 12:28:21;;;;;;;1999.90;999.90;;;7.30;99.90;;;;;;4981915;28;20984;-72
2023/02/02 12:30:54;;;;;;;1999.90;999.90;;;7.30;99.90;;;;;;4977993;28;20500;-72
2023/02/02 12:33:45;;;;;;;1999.90;999.90;;;7.20;99.90;;;;;;4984891;28;20521;-72
2023/02/02 12:36:35;;;;;;;1999.90;999.90;;;7.20;99.90;;;;;;4985014;28;20453;-72
2023/02/02 12:39:19;;;;;;;1999.90;999.90;;;7.10;99.90;;;;;;4979911;28;20442;-73
2023/02/02 12:42:13;;;;;;;1999.90;999.90;;;7.00;99.90;;;;;;4976548;28;20464;-72
2023/02/02 12:44:44;;;;;;;1999.90;999.90;;;6.90;99.90;;;;;;4981005;28;20489;-73
2023/02/02 12:47:30;;;;;;;1999.90;999.90;;;6.90;99.90;;;;;;4981874;28;20437;-71
2023/02/02 12:50:31;;;;;;;1999.90;999.90;;;6.90;99.90;;;;;;4978989;28;20421;-73
2023/02/02 12:52:56;;;;;;;1999.90;999.90;;;6.80;99.90;;;;;;4983654;28;20441;-72
2023/02/02 12:55:54;;;;;;;1999.90;999.90;;;6.80;99.90;;;;;;4985027;28;20487;-72
2023/02/02 12:58:19;;;;;;;1999.90;999.90;;;6.70;99.90;;;;;;4983552;28;20196;-70
2023/02/02 13:00:56;;;;;;;1999.90;999.90;;;6.70;99.90;;;;;;4981695;28;20458;-72
2023/02/02 13:03:29;;;;;;;1999.90;999.90;;;6.70;99.90;;;;;;4989518;28;20601;-71
2023/02/02 13:06:14;;;;;;;1999.90;999.90;;;6.60;99.90;;;;;;4978528;28;20470;-72
2023/02/02 13:09:16;;;;;;;1999.90;999.90;;;6.60;99.90;;;;;;4964596;28;20427;-71
2023/02/02 13:11:50;;;;;;;1999.90;999.90;;;6.60;99.90;;;;;;4984635;28;20842;-71
2023/02/02 13:14:33;;;;;;;1999.90;999.90;;;6.60;99.90;;;;;;4984538;28;20440;-72
2023/02/02 13:17:11;;;;;;;1999.90;999.90;;;6.70;99.90;;;;;;4984650;28;20474;-72
2023/02/02 13:19:43;;;;;;;1999.90;999.90;;;6.60;99.90;;;;;;4984779;28;20470;-71
2023/02/02 13:22:18;;;;;;;1999.90;999.90;;;6.60;99.90;;;;;;4984525;28;20463;-72
2023/02/02 13:24:46;;;;;;;1999.90;999.90;;;6.60;99.90;;;;;;4976747;28;20475;-71
2023/02/02 13:27:17;;;;;;;1999.90;999.90;;;6.60;99.90;;;;;;4984650;28;20466;-73
2023/02/02 13:30:17;;;;;;;1999.90;999.90;;;6.60;99.90;;;;;;4981563;28;20421;-72
2023/02/02 13:32:45;;;;;;;1999.90;999.90;;;6.70;99.90;;;;;;4984396;28;20470;-71
2023/02/02 13:35:21;;;;;;;1999.90;999.90;;;6.70;99.90;;;;;;4984365;28;20526;-72
2023/02/02 13:37:53;;;;;;;1999.90;999.90;;;6.80;99.90;;;;;;4981395;28;20422;-71
2023/02/02 13:40:37;;;;;;;1999.90;999.90;;;6.80;99.90;;;;;;4981401;28;20432;-72
2023/02/02 13:43:18;;;;;;;1999.90;999.90;;;6.80;99.90;;;;;;4981468;28;20951;-74
2023/02/02 13:46:15;;;;;;;1999.90;999.90;;;6.90;99.90;;;;;;4985298;28;20470;-71
2023/02/02 13:48:47;;;;;;;1999.90;999.90;;;6.90;99.90;;;;;;4980490;28;20447;-72
2023/02/02 13:51:42;;;;;;;1999.90;999.90;;;6.90;99.90;;;;;;4981062;28;20904;-70
2023/02/02 13:54:27;;;;;;;1999.90;999.90;;;7.00;99.90;;;;;;4972952;28;20438;-70
2023/02/02 13:57:03;;;;;;;299.30;224.17;;;7.00;99.90;;;;;;4977459;28;20431;-71
2023/02/02 13:59:52;;;;;;;10.87;2.33;;;7.00;99.90;;;;;;4983286;28;20536;-71
2023/02/02 14:02:25;;;;;;;75.50;31.23;;;7.00;99.90;;;;;;4980860;28;20456;-73
2023/02/02 14:05:01;;;;;;;117.93;67.07;;;7.00;99.90;;;;;;4976292;28;20467;-71
2023/02/02 14:07:42;;;;;;;1999.90;999.90;;;7.00;99.90;;;;;;4983140;28;20514;-71
2023/02/02 14:10:21;;;;;;;1999.90;999.90;;;7.00;99.90;;;;;;4980536;28;20464;-71
2023/02/02 14:12:47;;;;;;;139.17;47.23;;;7.00;99.90;;;;;;4983932;28;20479;-72
2023/02/02 14:15:12;;;;;;;126.20;29.93;;;7.00;99.90;;;;;;4976867;28;20432;-73
2023/02/02 14:17:38;;;;;;;149.20;40.03;;;7.10;99.90;;;;;;4982856;28;20484;-73
2023/02/02 14:20:24;;;;;;;120.70;27.73;;;7.10;99.90;;;;;;4983674;28;20201;-73
2023/02/02 14:22:51;;;;;;;114.97;20.77;;;7.10;99.90;;;;;;4980367;28;20189;-73
2023/02/02 14:25:28;;;;;;;112.90;18.93;;;7.10;99.90;;;;;;4980077;28;20475;-72
2023/02/02 14:28:00;;;;;;;144.73;66.57;;;7.10;99.90;;;;;;4976577;28;20398;-73
2023/02/02 14:30:34;;;;;;;111.97;18.50;;;7.10;99.90;;;;;;4982696;28;20531;-72
2023/02/02 14:33:47;;;;;;;117.60;23.40;;;7.10;99.90;;;;;;4980126;28;20496;-72
2023/02/02 14:36:15;;;;;;;109.50;16.90;;;7.10;99.90;;;;;;4971681;28;20514;-72